Portada
METAR-TAF:

METAR-TAF

Aeropuertos :

Aeropuerto Internacional de El Salvador

El Salvador, El Salvador

latitud: 13-26N, longitud: 089-03W, altitud: 25 m

Observación

El informe se hizo hace 35 minutos, a las 20:50 UTC
Viento 8 kt del norte, variando entre norte-noroeste y noreste
Temperatura 34°C
Humedad 41%
Presión 1008 hPa
Visibilidad 10 km o más
sin nubes por debajo de 1500 m y sin presencia de cumulonimbus.

METAR: MSLP 172050Z 01008KT 340V050 CAVOK 34/19 Q1008 A2978 NOSIG

Hora: 15:25 (21:25 UTC)

Pronóstico

El informe se hizo hace 6 horas y 0 minutos, a las 15:25 UTC
Pronóstico válido del 17 a las 18 UTC al 18 a las 18 UTC
Viento 10 kt del norte-noreste
Visibilidad 10 km o más
sin nubes por debajo de 1500 m y sin presencia de cumulonimbus.

TAF: MSLP 171525Z 1718/1818 03010KT CAVOK TX34/1718Z TN23/1812Z

Observaciones y pronósticos meteorológicos de más de 4000 aeropuertos (mensajes METAR y TAF).

Los puntos amarillos y rojos representan las estaciones disponibles.

Ponga el ratón en el punto deseado para ver el nombre de la estación.

Haga clic para ver las observaciones y los pronósticos meteorológicos.

Para cambiar el mapa : haga clic en los botones verdes con una cruz de color negro para hacer un zoom, en el botón verde con un guión para alejar o en las flechas verdes para mapas adyacentes.


METAR-TAF: